createdAt,value
2022-12-02T00:00:25.699Z,3.8
2022-12-02T00:02:30.514Z,3.8
2022-12-02T00:04:31.611Z,3.8
2022-12-02T00:06:32.951Z,3.8
2022-12-02T00:07:35.374Z,3.8
2022-12-02T00:09:36.529Z,3.8
2022-12-02T00:11:37.844Z,3.8
2022-12-02T00:13:39.162Z,3.8
2022-12-02T00:15:43.882Z,3.8
2022-12-02T00:17:45.203Z,3.8
2022-12-02T00:19:46.519Z,3.8
2022-12-02T00:21:47.850Z,3.8
2022-12-02T00:23:49.243Z,3.8
2022-12-02T00:25:50.583Z,3.8
2022-12-02T00:27:51.884Z,3.7
2022-12-02T00:31:57.886Z,3.7
2022-12-02T00:33:59.260Z,3.7
2022-12-02T00:36:00.579Z,3.8
2022-12-02T00:40:03.333Z,3.6
2022-12-02T00:44:09.377Z,3.5
2022-12-02T00:50:13.410Z,3.4
2022-12-02T00:52:14.771Z,3.4
2022-12-02T00:54:16.063Z,3.4
2022-12-02T00:56:17.412Z,3.4
2022-12-02T00:58:22.127Z,3.4
2022-12-02T01:00:23.403Z,3.4
2022-12-02T01:02:24.785Z,3.4
2022-12-02T01:03:27.077Z,3.4
2022-12-02T01:05:28.347Z,3.3
2022-12-02T01:07:29.750Z,3.3
2022-12-02T01:13:36.912Z,3.3
2022-12-02T01:15:38.247Z,3.3
2022-12-02T01:17:39.565Z,3.3
2022-12-02T01:19:40.888Z,3.3
2022-12-02T01:21:42.273Z,3.3
2022-12-02T01:23:43.615Z,3.3
2022-12-02T01:25:48.206Z,3.3
2022-12-02T01:27:49.526Z,3.3
2022-12-02T01:29:50.856Z,3.3
2022-12-02T01:31:52.332Z,3.3
2022-12-02T01:33:53.559Z,3.2
2022-12-02T01:35:54.875Z,3.2
2022-12-02T01:37:56.141Z,3.2
2022-12-02T01:40:00.845Z,3.2
2022-12-02T01:42:02.204Z,3.2
2022-12-02T01:44:03.491Z,3.2
2022-12-02T01:46:04.874Z,3.2
2022-12-02T01:48:06.160Z,3.2
2022-12-02T01:50:07.525Z,3.2
2022-12-02T01:52:08.851Z,3.2
2022-12-02T01:54:13.578Z,3.2
2022-12-02T02:02:46.477Z,3.2
2022-12-02T02:04:47.780Z,3.2
2022-12-02T02:06:52.317Z,3.1
2022-12-02T02:08:53.582Z,3.2
2022-12-02T02:10:54.899Z,3.1
2022-12-02T02:12:56.265Z,3.2
2022-12-02T02:14:57.544Z,3.2
2022-12-02T02:16:58.934Z,3.2
2022-12-02T02:19:00.157Z,3.2
2022-12-02T02:21:04.947Z,3.2
2022-12-02T02:23:06.277Z,3.2
2022-12-02T02:25:07.557Z,3.2
2022-12-02T02:27:08.885Z,3.2
2022-12-02T02:29:10.162Z,3.2
2022-12-02T02:33:12.783Z,3.1
2022-12-02T02:35:17.401Z,3.1
2022-12-02T02:37:18.719Z,3.1
2022-12-02T02:39:20.042Z,3.1
2022-12-02T02:41:21.333Z,3.1
2022-12-02T02:43:22.647Z,3.1
2022-12-02T02:45:23.910Z,3.1
2022-12-02T02:47:25.246Z,3.1
2022-12-02T02:49:29.823Z,3.1
2022-12-02T02:51:31.154Z,3.1
2022-12-02T02:53:32.517Z,3.1
2022-12-02T02:54:34.900Z,3.1
2022-12-02T02:56:36.269Z,3.1
2022-12-02T02:58:37.476Z,3.1
2022-12-02T03:00:38.808Z,3.1
2022-12-02T03:02:43.447Z,3.1
2022-12-02T03:04:44.746Z,3.1
2022-12-02T03:08:47.436Z,3.1
2022-12-02T03:14:53.395Z,3.1
2022-12-02T03:16:57.896Z,3
2022-12-02T03:18:59.090Z,3
2022-12-02T03:21:00.386Z,3.1
2022-12-02T03:23:01.694Z,3.1
2022-12-02T03:25:03.016Z,3.1
2022-12-02T03:27:04.324Z,3
2022-12-02T03:35:12.927Z,3
2022-12-02T03:37:14.214Z,3
2022-12-02T03:39:15.515Z,3
2022-12-02T03:41:16.856Z,3
2022-12-02T03:43:18.143Z,3
2022-12-02T03:45:22.828Z,3
2022-12-02T03:47:24.162Z,2.9
2022-12-02T03:49:25.568Z,2.9
2022-12-02T03:52:29.360Z,2.9
2022-12-02T03:54:30.675Z,2.9
2022-12-02T03:56:31.984Z,2.9
2022-12-02T03:58:36.560Z,2.9
2022-12-02T04:00:37.882Z,2.9
2022-12-02T04:02:39.291Z,2.9
2022-12-02T04:04:40.588Z,2.9
2022-12-02T04:06:41.906Z,2.9
2022-12-02T04:08:43.161Z,2.8
2022-12-02T04:10:44.500Z,2.8
2022-12-02T04:12:49.204Z,2.8
2022-12-02T04:14:50.829Z,2.7
2022-12-02T04:18:53.061Z,2.7
2022-12-02T04:20:54.362Z,2.7
2022-12-02T04:22:55.693Z,2.7
2022-12-02T04:24:57.115Z,2.7
2022-12-02T04:27:01.786Z,2.7
2022-12-02T04:29:03.089Z,2.6
2022-12-02T04:31:04.558Z,2.7
2022-12-02T04:33:05.841Z,2.7
2022-12-02T04:35:07.198Z,2.6
2022-12-02T04:37:08.489Z,2.6
2022-12-02T04:39:09.857Z,2.6
2022-12-02T04:41:14.598Z,2.6
2022-12-02T04:43:15.837Z,2.6
2022-12-02T04:45:17.156Z,2.6
2022-12-02T04:52:23.591Z,2.6
2022-12-02T05:02:33.582Z,2.6
2022-12-02T05:06:36.114Z,2.6
2022-12-02T05:12:43.489Z,2.6
2022-12-02T05:14:44.885Z,2.5
2022-12-02T05:16:46.242Z,2.5
2022-12-02T05:22:53.581Z,2.5
2022-12-02T05:24:54.991Z,2.5
2022-12-02T05:26:56.210Z,2.5
2022-12-02T05:28:57.481Z,2.5
2022-12-02T05:30:58.919Z,2.4
2022-12-02T05:37:06.028Z,2.4
2022-12-02T05:39:07.386Z,2.4
2022-12-02T05:43:29.353Z,2.3
2022-12-02T05:45:30.738Z,2.3
2022-12-02T05:47:32.114Z,2.2
2022-12-02T05:49:36.711Z,2.2
2022-12-02T05:51:38.000Z,2.2
2022-12-02T05:53:39.305Z,2.2
2022-12-02T05:57:41.966Z,2.1
2022-12-02T05:59:43.364Z,2.1
2022-12-02T06:01:44.793Z,2.2
2022-12-02T06:03:49.239Z,2.1
2022-12-02T06:05:50.605Z,2.1
2022-12-02T06:09:53.273Z,2.1
2022-12-02T06:11:54.517Z,2.2
2022-12-02T06:13:55.804Z,2.1
2022-12-02T06:20:02.955Z,2.1
2022-12-02T06:22:04.321Z,2.1
2022-12-02T06:24:05.586Z,2.1
2022-12-02T06:26:06.858Z,2.2
2022-12-02T06:28:10.436Z,2.2
2022-12-02T06:32:14.166Z,2.2
2022-12-02T06:34:15.355Z,2.2
2022-12-02T06:36:16.625Z,2.2
2022-12-02T06:43:22.933Z,2.2
2022-12-02T06:45:29.219Z,2.2
2022-12-02T06:47:28.794Z,2.2
2022-12-02T06:49:30.272Z,2.2
2022-12-02T06:51:31.578Z,2.2
2022-12-02T06:53:32.878Z,2.2
2022-12-02T06:55:34.233Z,2.2
2022-12-02T06:57:35.638Z,2.2
2022-12-02T06:59:40.321Z,2.2
2022-12-02T07:01:41.735Z,2.2
2022-12-02T07:03:42.862Z,2.2
2022-12-02T07:05:44.252Z,2.3
2022-12-02T07:07:45.545Z,2.3
2022-12-02T07:09:46.919Z,2.2
2022-12-02T07:11:48.162Z,2.2
2022-12-02T07:13:52.816Z,2.2
2022-12-02T07:15:54.137Z,2.2
2022-12-02T07:17:55.552Z,2.2
2022-12-02T07:19:56.932Z,2.2
2022-12-02T07:21:58.276Z,2.2
2022-12-02T07:23:59.534Z,2.2
2022-12-02T07:28:05.496Z,2.2
2022-12-02T07:33:10.552Z,2.2
2022-12-02T07:35:11.945Z,2.2
2022-12-02T07:37:13.336Z,2.2
2022-12-02T07:39:14.720Z,2.2
2022-12-02T07:41:19.373Z,2.2
2022-12-02T07:43:20.682Z,2.2
2022-12-02T07:45:21.960Z,2.2
2022-12-02T07:47:23.342Z,2.2
2022-12-02T07:49:24.721Z,2.3
2022-12-02T07:51:26.082Z,2.3
2022-12-02T07:55:31.899Z,2.3
2022-12-02T07:57:34.976Z,2.3
2022-12-02T07:59:34.574Z,2.3
2022-12-02T08:01:36.031Z,2.3
2022-12-02T08:03:37.320Z,2.3
2022-12-02T08:05:38.833Z,2.3
2022-12-02T08:07:40.123Z,2.3
2022-12-02T08:09:44.749Z,2.3
2022-12-02T08:11:45.986Z,2.3
2022-12-02T08:13:47.373Z,2.3
2022-12-02T08:15:53.982Z,2.3
2022-12-02T08:17:50.106Z,2.3
2022-12-02T08:21:52.752Z,2.3
2022-12-02T08:25:58.716Z,2.3
2022-12-02T08:28:00.110Z,2.3
2022-12-02T08:31:03.888Z,2.3
2022-12-02T08:33:05.229Z,2.3
2022-12-02T08:35:06.511Z,2.3
2022-12-02T08:37:11.286Z,2.3
2022-12-02T08:39:12.621Z,2.3
2022-12-02T08:41:14.339Z,2.3
2022-12-02T08:43:15.197Z,2.4
2022-12-02T08:45:16.497Z,2.4
2022-12-02T08:47:17.874Z,2.4
2022-12-02T08:51:23.983Z,2.4
2022-12-02T08:53:25.279Z,2.4
2022-12-02T08:55:26.577Z,2.4
2022-12-02T08:57:27.946Z,2.4
2022-12-02T08:59:29.331Z,2.4
2022-12-02T09:01:30.870Z,2.4
2022-12-02T09:03:33.670Z,2.4
2022-12-02T09:05:38.254Z,2.4
2022-12-02T09:07:39.580Z,2.4
2022-12-02T09:09:40.751Z,2.4
2022-12-02T09:11:42.202Z,2.5
2022-12-02T09:13:43.419Z,2.5
2022-12-02T09:15:44.750Z,2.5
2022-12-02T09:17:45.959Z,2.5
2022-12-02T09:19:50.652Z,2.5
2022-12-02T09:21:52.003Z,2.5
2022-12-02T09:23:53.303Z,2.5
2022-12-02T09:26:16.119Z,2.5
2022-12-02T09:28:17.427Z,2.5
2022-12-02T09:30:18.813Z,2.5
2022-12-02T09:32:23.468Z,2.5
2022-12-02T09:34:24.940Z,2.5
2022-12-02T09:36:26.132Z,2.5
2022-12-02T09:38:27.421Z,2.5
2022-12-02T09:40:28.718Z,2.5
2022-12-02T09:42:30.221Z,2.6
2022-12-02T09:44:31.389Z,2.6
2022-12-02T09:46:36.158Z,2.5
2022-12-02T09:48:37.322Z,2.5
2022-12-02T09:50:38.610Z,2.5
2022-12-02T09:52:39.915Z,2.5
2022-12-02T09:54:41.329Z,2.5
2022-12-02T09:56:42.701Z,2.5
2022-12-02T09:58:43.976Z,2.5
2022-12-02T10:00:48.534Z,2.5
2022-12-02T10:02:49.911Z,2.5
2022-12-02T10:04:51.289Z,2.4
2022-12-02T10:12:56.571Z,2.3
2022-12-02T10:15:01.282Z,2.3
2022-12-02T10:17:02.605Z,2.2
2022-12-02T10:19:03.842Z,2.3
2022-12-02T10:20:06.243Z,2.3
2022-12-02T10:22:07.637Z,2.2
2022-12-02T10:24:09.020Z,2.3
2022-12-02T10:26:10.373Z,2.3
2022-12-02T10:30:16.439Z,2.4
2022-12-02T10:32:17.729Z,2.4
2022-12-02T10:34:19.088Z,2.4
2022-12-02T10:36:20.493Z,2.3
2022-12-02T10:38:21.844Z,2.3
2022-12-02T10:40:23.138Z,2.3
2022-12-02T10:42:27.957Z,2.2
2022-12-02T10:44:29.338Z,2.2
2022-12-02T10:46:30.820Z,2.2
2022-12-02T10:48:32.095Z,2.2
2022-12-02T10:50:33.474Z,2.2
2022-12-02T10:52:34.838Z,2.2
2022-12-02T10:54:43.056Z,2.3
2022-12-02T10:56:40.897Z,2.2
2022-12-02T10:58:42.265Z,2.2
2022-12-02T11:00:44.313Z,2.3
2022-12-02T11:02:45.078Z,2.3
2022-12-02T11:04:46.323Z,2.3
2022-12-02T11:06:47.596Z,2.3
2022-12-02T11:08:48.948Z,2.3
2022-12-02T11:12:55.021Z,2.3
2022-12-02T11:14:56.428Z,2.3
2022-12-02T11:15:58.724Z,2.3
2022-12-02T11:18:00.078Z,2.3
2022-12-02T11:24:07.458Z,2.3
2022-12-02T11:26:08.696Z,2.3
2022-12-02T11:28:10.105Z,2.4
2022-12-02T11:30:11.342Z,2.4
2022-12-02T11:32:12.739Z,2.4
2022-12-02T11:34:14.114Z,2.4
2022-12-02T11:36:15.508Z,2.4
2022-12-02T11:38:20.101Z,2.4
2022-12-02T11:40:21.389Z,2.4
2022-12-02T11:42:22.690Z,2.4
2022-12-02T11:44:24.016Z,2.4
2022-12-02T11:48:26.684Z,2.5
2022-12-02T11:50:27.939Z,2.6
2022-12-02T11:52:32.634Z,2.6
2022-12-02T11:54:34.035Z,2.6
2022-12-02T11:58:36.798Z,2.4
2022-12-02T12:02:39.524Z,2.4
2022-12-02T12:04:40.769Z,2.5
2022-12-02T12:06:45.565Z,2.5
2022-12-02T12:08:46.942Z,2.5
2022-12-02T12:10:48.314Z,2.6
2022-12-02T12:11:50.625Z,2.6
2022-12-02T12:13:52.038Z,2.5
2022-12-02T12:15:53.392Z,2.5
2022-12-02T12:17:54.754Z,2.5
2022-12-02T12:19:59.339Z,2.5
2022-12-02T12:22:00.631Z,2.5
2022-12-02T12:24:02.181Z,2.4
2022-12-02T12:26:03.434Z,2.5
2022-12-02T12:30:06.061Z,2.6
2022-12-02T12:32:07.373Z,2.6
2022-12-02T12:34:11.957Z,2.5
2022-12-02T12:42:17.119Z,2.4
2022-12-02T12:50:29.744Z,2.4
2022-12-02T12:52:27.037Z,2.4
2022-12-02T12:54:28.302Z,2.4
2022-12-02T12:56:29.599Z,2.3
2022-12-02T12:58:30.881Z,2.2
2022-12-02T13:00:32.178Z,2.1
2022-12-02T13:02:37.128Z,2.1
2022-12-02T13:04:38.367Z,2.1
2022-12-02T13:06:42.736Z,2.1
2022-12-02T13:09:00.627Z,2
2022-12-02T13:11:01.942Z,2
2022-12-02T13:13:03.293Z,2
2022-12-02T13:15:07.849Z,2.1
2022-12-02T13:17:09.278Z,2.1
2022-12-02T13:19:10.555Z,2.1
2022-12-02T13:21:11.941Z,2.1
2022-12-02T13:23:13.830Z,2.1
2022-12-02T13:25:14.687Z,2.1
2022-12-02T13:27:15.970Z,2.2
2022-12-02T13:29:20.663Z,2.1
2022-12-02T13:33:23.335Z,2.1
2022-12-02T13:35:24.724Z,2.1
2022-12-02T13:37:26.118Z,2.1
2022-12-02T13:39:27.496Z,2.1
2022-12-02T13:41:28.885Z,2.2
2022-12-02T13:43:33.660Z,2.1
2022-12-02T13:45:35.020Z,2.2
2022-12-02T13:47:36.404Z,2.2
2022-12-02T13:49:37.658Z,2.1
2022-12-02T13:51:38.950Z,2.1
2022-12-02T13:53:40.314Z,2.2
2022-12-02T13:55:41.682Z,2.1
2022-12-02T13:57:46.144Z,2.1
2022-12-02T13:59:47.425Z,2
2022-12-02T14:01:48.813Z,2
2022-12-02T14:02:51.192Z,1.9
2022-12-02T14:08:55.195Z,1.9
2022-12-02T14:10:59.880Z,1.9
2022-12-02T14:13:01.262Z,1.9
2022-12-02T14:15:02.617Z,1.9
2022-12-02T14:23:08.010Z,1.9
2022-12-02T14:25:12.680Z,1.9
2022-12-02T14:29:15.443Z,1.9
2022-12-02T14:31:23.789Z,1.9
2022-12-02T14:35:19.538Z,1.9
2022-12-02T14:37:20.900Z,1.9
2022-12-02T14:39:25.690Z,1.8
2022-12-02T14:41:27.164Z,1.8
2022-12-02T14:43:28.449Z,1.8
2022-12-02T14:45:29.803Z,1.8
2022-12-02T14:47:31.153Z,1.8
2022-12-02T14:51:34.053Z,1.8
2022-12-02T14:53:43.041Z,1.8
2022-12-02T14:55:41.578Z,1.8
2022-12-02T14:57:42.947Z,1.8
2022-12-02T14:58:45.327Z,1.8
2022-12-02T15:00:46.734Z,1.8
2022-12-02T15:02:48.173Z,1.9
2022-12-02T15:04:49.537Z,1.9
2022-12-02T15:06:54.225Z,1.9
2022-12-02T15:08:55.601Z,1.9
2022-12-02T15:12:58.374Z,1.9
2022-12-02T15:15:22.719Z,1.9
2022-12-02T15:17:01.223Z,1.9
2022-12-02T15:19:02.492Z,1.9
2022-12-02T15:23:08.614Z,1.9
2022-12-02T15:25:09.955Z,1.8
2022-12-02T15:27:11.336Z,1.8
2022-12-02T15:29:12.696Z,1.8
2022-12-02T15:31:14.146Z,1.9
2022-12-02T15:33:15.463Z,1.9
2022-12-02T15:35:20.230Z,1.9
2022-12-02T15:37:21.587Z,1.9
2022-12-02T15:39:22.967Z,1.9
2022-12-02T15:41:24.322Z,1.9
2022-12-02T15:43:25.677Z,1.9
2022-12-02T15:45:27.072Z,2
2022-12-02T15:47:28.429Z,2
2022-12-02T15:49:33.193Z,2
2022-12-02T15:51:34.555Z,2
2022-12-02T15:53:35.930Z,2
2022-12-02T15:54:38.235Z,2
2022-12-02T15:56:39.595Z,2
2022-12-02T15:58:40.934Z,2
2022-12-02T16:00:42.325Z,2
2022-12-02T16:02:50.021Z,2
2022-12-02T16:04:48.364Z,2
2022-12-02T16:06:49.625Z,2
2022-12-02T16:08:55.174Z,2
2022-12-02T16:10:52.206Z,2
2022-12-02T16:12:53.578Z,2
2022-12-02T16:14:55.516Z,2
2022-12-02T16:16:59.749Z,2
2022-12-02T16:19:01.132Z,2
2022-12-02T16:21:02.430Z,2.1
2022-12-02T16:23:03.795Z,2.1
2022-12-02T16:27:06.529Z,2.1
2022-12-02T16:29:07.800Z,2.1
2022-12-02T16:31:12.482Z,2.1
2022-12-02T16:33:13.661Z,2.1
2022-12-02T16:35:14.954Z,2.1
2022-12-02T16:37:16.354Z,2.1
2022-12-02T16:39:17.837Z,2.1
2022-12-02T16:41:19.076Z,2.1
2022-12-02T16:43:20.361Z,2.1
2022-12-02T16:45:25.116Z,2.1
2022-12-02T16:49:27.713Z,2.1
2022-12-02T16:51:56.743Z,2.1
2022-12-02T16:55:59.291Z,2.1
2022-12-02T16:58:03.997Z,2.1
2022-12-02T17:00:05.291Z,2.1
2022-12-02T17:04:08.077Z,2.1
2022-12-02T17:06:09.318Z,2.1
2022-12-02T17:08:10.804Z,2.2
2022-12-02T17:10:11.983Z,2.1
2022-12-02T17:12:16.717Z,2.1
2022-12-02T17:14:18.106Z,2.1
2022-12-02T17:16:19.505Z,2.1
2022-12-02T17:18:20.767Z,2.2
2022-12-02T17:20:22.147Z,2.1
2022-12-02T17:22:23.462Z,2.1
2022-12-02T17:24:24.835Z,2.1
2022-12-02T17:26:29.406Z,2.1
2022-12-02T17:28:30.784Z,2.1
2022-12-02T17:30:32.079Z,2.1
2022-12-02T17:32:33.392Z,2.1
2022-12-02T17:34:34.743Z,2.1
2022-12-02T17:36:36.114Z,2.1
2022-12-02T17:38:37.414Z,2.1
2022-12-02T17:40:42.221Z,2.1
2022-12-02T17:42:43.609Z,2.1
2022-12-02T17:44:44.973Z,2.1
2022-12-02T17:47:48.548Z,2.1
2022-12-02T17:49:49.846Z,2
2022-12-02T17:57:58.577Z,2
2022-12-02T17:59:59.951Z,2
2022-12-02T18:02:01.505Z,2
2022-12-02T18:04:02.790Z,2
2022-12-02T18:06:04.264Z,2
2022-12-02T18:08:09.035Z,2
2022-12-02T18:10:10.278Z,1.9
2022-12-02T18:12:11.658Z,2
2022-12-02T18:14:13.050Z,2
2022-12-02T18:16:14.465Z,2
2022-12-02T18:18:15.768Z,1.9
2022-12-02T18:20:17.167Z,1.9
2022-12-02T18:22:21.867Z,1.9
2022-12-02T18:24:23.223Z,1.9
2022-12-02T18:28:25.972Z,1.9
2022-12-02T18:30:27.390Z,1.9
2022-12-02T18:32:28.719Z,1.9
2022-12-02T18:34:30.086Z,1.9
2022-12-02T18:40:37.498Z,1.9
2022-12-02T18:41:39.784Z,1.9
2022-12-02T18:43:41.175Z,1.9
2022-12-02T18:45:42.529Z,1.9
2022-12-02T18:47:43.874Z,1.9
2022-12-02T18:49:48.556Z,1.8
2022-12-02T18:51:49.854Z,1.9
2022-12-02T18:53:51.233Z,1.8
2022-12-02T18:55:52.615Z,1.8
2022-12-02T18:57:53.967Z,1.8
2022-12-02T18:59:55.352Z,1.9
2022-12-02T19:01:56.811Z,1.8
2022-12-02T19:04:01.400Z,1.9
2022-12-02T19:06:02.787Z,1.9
2022-12-02T19:08:04.312Z,1.9
2022-12-02T19:10:05.561Z,1.9
2022-12-02T19:12:06.931Z,1.9
2022-12-02T19:14:08.296Z,1.8
2022-12-02T19:16:09.713Z,1.9
2022-12-02T19:18:14.425Z,1.8
2022-12-02T19:20:15.785Z,1.8
2022-12-02T19:22:17.175Z,1.9
2022-12-02T19:24:18.502Z,1.9
2022-12-02T19:26:19.819Z,1.9
2022-12-02T19:30:22.549Z,1.9
2022-12-02T19:32:27.195Z,1.9
2022-12-02T19:34:28.471Z,1.9
2022-12-02T19:36:29.836Z,1.9
2022-12-02T19:37:32.236Z,1.9
2022-12-02T19:39:33.547Z,1.9
2022-12-02T19:41:34.904Z,1.9
2022-12-02T19:47:42.431Z,1.9
2022-12-02T19:49:43.840Z,2
2022-12-02T19:51:45.088Z,1.9
2022-12-02T19:59:53.684Z,1.8
2022-12-02T20:04:01.363Z,1.8
2022-12-02T20:22:12.078Z,1.7
2022-12-02T20:24:13.444Z,1.7
2022-12-02T20:26:14.801Z,1.7
2022-12-02T20:28:19.553Z,1.7
2022-12-02T20:30:20.987Z,1.7
2022-12-02T20:32:22.265Z,1.7
2022-12-02T20:34:45.535Z,1.7
2022-12-02T20:36:46.778Z,1.7
2022-12-02T20:38:48.157Z,1.7
2022-12-02T20:40:54.543Z,1.7
2022-12-02T20:42:55.862Z,1.7
2022-12-02T20:44:57.396Z,1.8
2022-12-02T20:46:58.657Z,1.8
2022-12-02T20:48:59.963Z,1.7
2022-12-02T20:51:01.324Z,1.7
2022-12-02T20:53:02.670Z,1.7
2022-12-02T20:55:07.447Z,1.7
2022-12-02T20:57:08.812Z,1.7
2022-12-02T20:59:10.172Z,1.7
2022-12-02T21:01:12.891Z,1.7
2022-12-02T21:03:12.889Z,1.7
2022-12-02T21:05:14.259Z,1.6
2022-12-02T21:07:15.621Z,1.6
2022-12-02T21:09:20.372Z,1.6
2022-12-02T21:13:23.007Z,1.7
2022-12-02T21:15:24.347Z,1.6
2022-12-02T21:17:25.712Z,1.6
2022-12-02T21:19:27.001Z,1.6
2022-12-02T21:21:28.336Z,1.7
2022-12-02T21:23:32.995Z,1.6
2022-12-02T21:25:34.349Z,1.6
2022-12-02T21:27:35.739Z,1.6
2022-12-02T21:30:39.507Z,1.6
2022-12-02T21:32:40.878Z,1.7
2022-12-02T21:34:42.248Z,1.6
2022-12-02T21:36:47.030Z,1.6
2022-12-02T21:38:48.385Z,1.6
2022-12-02T21:40:49.754Z,1.7
2022-12-02T21:42:51.095Z,1.6
2022-12-02T21:44:52.595Z,1.7
2022-12-02T21:46:53.955Z,1.7
2022-12-02T21:48:55.185Z,1.6
2022-12-02T21:50:59.954Z,1.6
2022-12-02T21:53:01.298Z,1.6
2022-12-02T21:55:02.651Z,1.6
2022-12-02T21:57:04.042Z,1.6
2022-12-02T21:59:05.383Z,1.7
2022-12-02T22:03:13.203Z,1.6
2022-12-02T22:05:12.887Z,1.6
2022-12-02T22:07:14.421Z,1.6
2022-12-02T22:09:15.500Z,1.7
2022-12-02T22:11:16.862Z,1.7
2022-12-02T22:21:27.082Z,1.6
2022-12-02T22:23:28.474Z,1.7
2022-12-02T22:24:30.851Z,1.7
2022-12-02T22:26:32.231Z,1.7
2022-12-02T22:28:33.597Z,1.7
2022-12-02T22:30:34.937Z,1.7
2022-12-02T22:32:39.703Z,1.6
2022-12-02T22:34:41.098Z,1.6
2022-12-02T22:36:42.448Z,1.6
2022-12-02T22:38:43.812Z,1.6
2022-12-02T22:40:45.182Z,1.6
2022-12-02T22:42:46.539Z,1.7
2022-12-02T22:44:47.934Z,1.6
2022-12-02T22:46:52.690Z,1.7
2022-12-02T22:48:54.070Z,1.6
2022-12-02T22:50:55.432Z,1.7
2022-12-02T22:52:56.772Z,1.6
2022-12-02T22:54:58.189Z,1.7
2022-12-02T22:56:59.543Z,1.6
2022-12-02T22:59:00.911Z,1.7
2022-12-02T23:01:05.739Z,1.7
2022-12-02T23:03:07.116Z,1.7
2022-12-02T23:05:08.464Z,1.7
2022-12-02T23:07:09.780Z,1.7
2022-12-02T23:09:11.078Z,1.7
2022-12-02T23:11:12.417Z,1.7
2022-12-02T23:13:13.788Z,1.7
2022-12-02T23:20:23.668Z,1.7
2022-12-02T23:22:25.049Z,1.7
2022-12-02T23:24:26.419Z,1.7
2022-12-02T23:26:27.765Z,1.7
2022-12-02T23:28:32.541Z,1.7
2022-12-02T23:30:33.989Z,1.7
2022-12-02T23:32:35.293Z,1.7
2022-12-02T23:34:36.668Z,1.7
2022-12-02T23:36:38.059Z,1.7
2022-12-02T23:38:39.410Z,1.8
2022-12-02T23:40:40.757Z,1.7
2022-12-02T23:42:45.432Z,1.7
2022-12-02T23:44:46.878Z,1.7
2022-12-02T23:46:48.148Z,1.7
2022-12-02T23:48:49.523Z,1.7
2022-12-02T23:52:52.275Z,1.7
2022-12-02T23:54:54.082Z,1.7
2022-12-02T23:56:58.395Z,1.7
2022-12-02T23:58:59.770Z,1.7
